Time;durP1;ratioP1;P1;durP2;ratioP2;P2;SDS_P1;SDS_P2;PMS_P1;PMS_P2;Temp;Humidity;BMP_temperature;BMP_pressure;BME280_temperature;BME280_humidity;BME280_pressure;Samples;Min_cycle;Max_cycle;Signal;HPM_P1;HPM_P2
2023/07/02 00:01:49;;;;;;;10.27;6.18;;;;;;;18.25;73.37;100492.13;3551919;40;20136;-64
2023/07/02 00:04:16;;;;;;;11.88;5.97;;;;;;;18.23;72.90;100488.69;3549853;40;20311;-64
2023/07/02 00:06:48;;;;;;;12.90;6.25;;;;;;;18.27;73.21;100495.56;3551628;40;20053;-63
2023/07/02 00:09:15;;;;;;;13.10;6.82;;;;;;;18.25;73.54;100492.13;3544688;40;20200;-64
2023/07/02 00:11:45;;;;;;;13.40;6.78;;;;;;;18.24;73.53;100498.59;3550941;40;20059;-64
2023/07/02 00:14:12;;;;;;;13.45;7.00;;;;;;;18.21;73.31;100490.75;3541604;40;20096;-64
2023/07/02 00:16:44;;;;;;;14.13;6.75;;;;;;;18.21;73.12;100492.59;3552195;40;20062;-63
2023/07/02 00:19:14;;;;;;;16.77;7.47;;;;;;;18.18;73.03;100488.31;3553971;40;20055;-64
2023/07/02 00:21:40;;;;;;;14.68;8.30;;;;;;;18.16;72.49;100482.16;3551460;40;20057;-64
2023/07/02 00:24:09;;;;;;;13.52;7.38;;;;;;;18.15;73.46;100485.06;3551706;40;20262;-64
2023/07/02 00:26:41;;;;;;;15.27;7.93;;;;;;;17.93;73.45;100454.53;3550728;40;20063;-64
2023/07/02 00:29:08;;;;;;;13.48;7.63;;;;;;;18.17;72.49;100489.31;3551434;40;20348;-64
2023/07/02 00:31:34;;;;;;;14.90;8.27;;;;;;;18.16;72.98;100495.75;3554227;40;20053;-64
2023/07/02 00:34:01;;;;;;;15.98;8.20;;;;;;;18.16;73.29;100492.19;3553096;40;20060;-64
2023/07/02 00:36:27;;;;;;;16.85;8.45;;;;;;;18.16;72.52;100492.19;3553352;40;20110;-64
2023/07/02 00:38:53;;;;;;;14.98;8.50;;;;;;;18.07;72.70;100473.03;3551297;40;20064;-64
2023/07/02 00:41:18;;;;;;;15.85;8.80;;;;;;;18.11;72.71;100473.63;3552243;40;20101;-64
2023/07/02 00:43:44;;;;;;;18.10;8.82;;;;;;;18.09;73.06;100481.06;3552801;40;20533;-63
2023/07/02 00:46:21;;;;;;;16.42;8.85;;;;;;;18.06;72.71;100482.22;3551469;40;20488;-64
2023/07/02 00:48:50;;;;;;;14.88;8.77;;;;;;;18.06;72.84;100481.38;3552833;40;20052;-64
2023/07/02 00:51:24;;;;;;;16.17;9.55;;;;;;;18.03;72.59;100490.69;3553937;40;20538;-64
2023/07/02 00:53:54;;;;;;;16.60;9.68;;;;;;;18.02;72.82;100488.13;3551705;40;20083;-65
2023/07/02 00:56:22;;;;;;;15.88;9.45;;;;;;;18.01;72.33;100497.28;3553421;40;20498;-64
2023/07/02 00:58:51;;;;;;;17.05;8.77;;;;;;;17.99;72.21;100496.59;3551521;40;20789;-64
2023/07/02 01:01:27;;;;;;;20.55;10.43;;;;;;;17.95;72.31;100495.16;3550512;40;20527;-64
2023/07/02 01:04:00;;;;;;;16.75;9.85;;;;;;;17.90;72.40;100492.91;3551367;40;20088;-65
2023/07/02 01:06:37;;;;;;;20.80;9.93;;;;;;;17.90;72.76;100509.22;3546239;40;20057;-64
2023/07/02 01:09:06;;;;;;;16.77;9.95;;;;;;;17.86;73.30;100500.50;3552617;40;20295;-64
2023/07/02 01:11:41;;;;;;;18.33;10.48;;;;;;;17.83;73.02;100498.09;3551005;40;20331;-64
2023/07/02 01:14:25;;;;;;;18.70;10.73;;;;;;;17.79;72.71;100506.69;3551161;40;20313;-64
2023/07/02 01:16:54;;;;;;;20.15;11.38;;;;;;;17.73;72.65;100497.25;3551452;40;20396;-65
2023/07/02 01:19:51;;;;;;;18.27;10.48;;;;;;;17.72;73.29;100505.53;3550640;40;20335;-64
2023/07/02 01:22:19;;;;;;;19.48;11.30;;;;;;;17.70;73.93;100513.84;3553262;40;20506;-64
2023/07/02 01:24:47;;;;;;;20.08;10.45;;;;;;;17.58;73.46;100496.88;3553750;40;20076;-64
2023/07/02 01:27:14;;;;;;;19.55;11.57;;;;;;;17.64;73.78;100522.59;3553856;40;20505;-64
2023/07/02 01:29:41;;;;;;;22.60;11.63;;;;;;;17.62;74.00;100511.00;3553137;40;20438;-64
2023/07/02 01:32:08;;;;;;;18.95;11.45;;;;;;;17.54;74.29;100508.19;3551602;40;20139;-65
2023/07/02 01:34:34;;;;;;;24.20;11.98;;;;;;;17.57;73.89;100522.34;3553765;40;20295;-64
2023/07/02 01:37:02;;;;;;;22.55;11.60;;;;;;;17.57;74.56;100524.19;3552106;40;20152;-64
2023/07/02 01:39:28;;;;;;;23.10;12.30;;;;;;;17.56;74.08;100517.03;3554203;40;20073;-64
2023/07/02 01:42:08;;;;;;;22.92;12.10;;;;;;;17.56;74.51;100522.47;3550861;40;20382;-64
2023/07/02 01:44:34;;;;;;;23.55;12.75;;;;;;;17.55;74.24;100520.78;3549516;40;20624;-64
2023/07/02 01:47:00;;;;;;;20.00;12.55;;;;;;;17.49;74.42;100516.78;3550471;40;20069;-64
2023/07/02 01:49:25;;;;;;;25.27;12.93;;;;;;;17.48;75.00;100514.22;3551434;40;20380;-64
2023/07/02 01:51:56;;;;;;;21.70;13.18;;;;;;;17.49;74.64;100522.22;3552061;40;20067;-64
2023/07/02 01:54:26;;;;;;;21.58;13.27;;;;;;;17.48;74.78;100522.38;3553721;40;20057;-64
2023/07/02 01:56:53;;;;;;;23.83;13.45;;;;;;;17.49;75.25;100522.22;3552538;40;20057;-65
2023/07/02 01:59:19;;;;;;;21.20;13.10;;;;;;;17.48;75.23;100531.38;3550241;40;20462;-64
2023/07/02 02:01:44;;;;;;;27.05;14.95;;;;;;;17.47;74.86;100528.78;3551974;40;20061;-65
2023/07/02 02:04:11;;;;;;;26.20;13.90;;;;;;;17.46;75.20;100524.38;3551180;40;20282;-65
2023/07/02 02:06:39;;;;;;;24.63;13.60;;;;;;;17.42;75.07;100531.09;3551730;40;20321;-64
2023/07/02 02:09:06;;;;;;;23.30;13.85;;;;;;;17.39;76.25;100527.66;3551573;40;20068;-64
2023/07/02 02:11:34;;;;;;;24.77;14.68;;;;;;;17.37;76.29;100535.09;3552632;40;20056;-64
2023/07/02 02:14:01;;;;;;;25.42;13.60;;;;;;;17.38;75.94;100531.41;3549747;40;20112;-64
2023/07/02 02:16:28;;;;;;;30.02;15.55;;;;;;;17.38;76.12;100527.81;3549074;40;20225;-64
2023/07/02 02:18:54;;;;;;;27.73;15.38;;;;;;;17.37;76.63;100529.66;3548847;40;20090;-64
2023/07/02 02:21:21;;;;;;;26.92;14.70;;;;;;;17.38;76.17;100531.41;3551081;40;20512;-64
2023/07/02 02:23:47;;;;;;;23.35;14.88;;;;;;;17.37;75.99;100535.09;3549104;40;20068;-64
2023/07/02 02:26:14;;;;;;;26.58;15.18;;;;;;;17.29;76.34;100518.69;3550936;40;20428;-65
2023/07/02 02:28:40;;;;;;;27.42;15.57;;;;;;;17.30;77.07;100533.97;3551419;40;20048;-63
2023/07/02 02:31:06;;;;;;;24.52;15.55;;;;;;;17.26;77.40;100538.00;3551470;40;21642;-64
2023/07/02 02:33:33;;;;;;;29.73;14.90;;;;;;;17.25;76.77;100536.25;3552054;40;20053;-64
2023/07/02 02:35:59;;;;;;;25.17;15.52;;;;;;;17.18;77.42;100526.97;3547677;40;20459;-64
2023/07/02 02:38:24;;;;;;;26.83;14.88;;;;;;;17.18;77.65;100540.56;3549893;40;20080;-64
2023/07/02 02:40:50;;;;;;;30.05;16.55;;;;;;;17.11;77.31;100536.72;3547682;40;20057;-65
2023/07/02 02:43:18;;;;;;;25.27;15.73;;;;;;;17.10;77.83;100543.16;3550784;40;20341;-63
2023/07/02 02:45:44;;;;;;;30.00;16.42;;;;;;;17.07;78.63;100543.44;3551670;40;20064;-64
2023/07/02 02:48:10;;;;;;;24.40;16.00;;;;;;;17.05;78.57;100549.00;3552380;40;20716;-63
2023/07/02 02:50:41;;;;;;;27.90;16.13;;;;;;;16.50;78.46;100460.97;3551507;40;20063;-64
2023/07/02 02:53:07;;;;;;;28.73;16.30;;;;;;;16.97;79.12;100556.16;3552815;40;20064;-65
2023/07/02 02:55:33;;;;;;;28.45;16.27;;;;;;;16.92;78.81;100557.44;3549606;40;20146;-64
2023/07/02 02:57:59;;;;;;;25.05;15.27;;;;;;;16.90;79.56;100558.56;3550845;40;20101;-64
2023/07/02 03:00:25;;;;;;;25.95;15.80;;;;;;;16.86;79.51;100563.44;3552425;40;20328;-64
2023/07/02 03:02:50;;;;;;;24.65;15.05;;;;;;;16.82;79.63;100567.44;3549700;40;20313;-65
2023/07/02 03:05:16;;;;;;;26.95;15.90;;;;;;;16.30;79.79;100493.50;3550487;40;20093;-64
2023/07/02 03:07:42;;;;;;;27.85;16.70;;;;;;;16.76;79.78;100578.00;3551905;40;20388;-64
2023/07/02 03:10:09;;;;;;;25.58;16.20;;;;;;;16.73;79.96;100579.13;3551312;40;20164;-64
2023/07/02 03:12:35;;;;;;;29.48;16.00;;;;;;;16.65;80.03;100571.69;3552515;40;20053;-64
2023/07/02 03:15:00;;;;;;;28.98;16.25;;;;;;;16.61;79.72;100574.81;3551452;40;20316;-66
2023/07/02 03:17:26;;;;;;;26.58;16.67;;;;;;;16.61;80.34;100581.09;3542348;40;20061;-66
2023/07/02 03:19:52;;;;;;;30.08;16.35;;;;;;;16.60;80.05;100592.09;3551450;40;20487;-64
2023/07/02 03:22:17;;;;;;;28.48;16.90;;;;;;;16.58;80.27;100580.50;3550276;40;20065;-63
2023/07/02 03:24:43;;;;;;;27.70;16.50;;;;;;;16.56;80.24;100586.09;3552179;40;20077;-65
2023/07/02 03:27:09;;;;;;;31.92;17.08;;;;;;;16.54;79.64;100598.94;3552817;40;20714;-64
2023/07/02 03:29:35;;;;;;;26.80;15.60;;;;;;;16.48;80.03;100584.06;3552489;40;20065;-64
2023/07/02 03:32:02;;;;;;;25.80;15.57;;;;;;;16.54;80.08;100600.78;3550454;40;20658;-64
2023/07/02 03:34:28;;;;;;;28.52;15.35;;;;;;;16.52;79.52;100600.06;3551393;40;20138;-64
2023/07/02 03:36:53;;;;;;;26.98;15.45;;;;;;;16.51;79.06;100598.34;3550588;40;20057;-63
2023/07/02 03:39:19;;;;;;;24.33;14.77;;;;;;;16.47;78.75;100595.91;3551160;40;20630;-63
2023/07/02 03:41:45;;;;;;;27.63;16.17;;;;;;;16.45;79.47;100607.91;3550569;40;20064;-63
2023/07/02 03:44:11;;;;;;;28.00;15.65;;;;;;;16.25;78.38;100579.84;3552916;40;20434;-63
2023/07/02 03:46:37;;;;;;;24.35;14.98;;;;;;;16.42;78.75;100603.59;3550797;40;20053;-63
2023/07/02 03:49:03;;;;;;;28.98;15.05;;;;;;;16.25;77.83;100582.56;3552195;40;20131;-64
2023/07/02 03:51:30;;;;;;;22.15;13.80;;;;;;;16.36;77.00;100609.56;3553024;40;20485;-63
2023/07/02 03:53:56;;;;;;;23.23;14.02;;;;;;;16.34;76.49;100603.44;3551717;40;20406;-63
2023/07/02 03:56:21;;;;;;;23.15;13.95;;;;;;;16.31;76.20;100609.16;3552013;40;20069;-65
2023/07/02 03:58:47;;;;;;;23.17;13.23;;;;;;;16.30;75.91;100615.56;3552966;40;20174;-64
2023/07/02 04:01:13;;;;;;;26.05;14.40;;;;;;;16.27;76.33;100615.84;3551771;40;20055;-65
2023/07/02 04:03:40;;;;;;;22.67;13.10;;;;;;;16.27;75.39;100615.84;3552351;40;20277;-65
2023/07/02 04:06:06;;;;;;;25.38;13.32;;;;;;;16.27;75.70;100618.56;3551823;40;20057;-65
2023/07/02 04:08:32;;;;;;;23.27;12.70;;;;;;;16.26;75.29;100624.97;3552521;40;20548;-65
2023/07/02 04:10:58;;;;;;;23.98;13.77;;;;;;;16.27;75.07;100623.09;3552253;40;20734;-65
2023/07/02 04:13:23;;;;;;;25.80;13.43;;;;;;;16.25;74.36;100623.25;3552874;40;20057;-65
2023/07/02 04:15:49;;;;;;;25.13;13.45;;;;;;;15.86;75.04;100558.03;3551899;40;20328;-64
2023/07/02 04:18:15;;;;;;;26.15;12.77;;;;;;;16.28;75.62;100624.84;3552800;40;20079;-65
2023/07/02 04:20:41;;;;;;;20.98;12.55;;;;;;;16.28;75.48;100625.69;3553005;40;20065;-65
2023/07/02 04:23:06;;;;;;;21.15;12.63;;;;;;;16.27;74.73;100626.69;3550865;40;20049;-64
2023/07/02 04:25:33;;;;;;;22.08;11.93;;;;;;;16.21;74.55;100621.81;3551114;40;20064;-64
2023/07/02 04:27:59;;;;;;;22.63;12.43;;;;;;;16.19;73.59;100623.81;3550669;40;20331;-65
2023/07/02 04:30:25;;;;;;;20.63;11.90;;;;;;;16.24;73.01;100626.97;3550848;40;20072;-64
2023/07/02 04:32:52;;;;;;;21.67;12.23;;;;;;;16.27;74.25;100631.25;3550414;40;20057;-63
2023/07/02 04:35:18;;;;;;;22.10;11.68;;;;;;;16.14;73.68;100593.50;3554060;40;20490;-62
2023/07/02 04:37:44;;;;;;;26.08;12.48;;;;;;;16.38;73.67;100632.00;3551583;40;20367;-62
2023/07/02 04:40:10;;;;;;;21.40;11.80;;;;;;;16.43;73.72;100632.47;3550080;40;20143;-64
2023/07/02 04:42:46;;;;;;;20.58;11.48;;;;;;;16.41;72.76;100634.44;3553596;40;20061;-64
2023/07/02 04:45:17;;;;;;;20.88;11.18;;;;;;;16.48;72.79;100640.19;3548221;40;20377;-64
2023/07/02 04:47:44;;;;;;;18.63;10.30;;;;;;;16.52;72.00;100641.63;3552088;40;20053;-65
2023/07/02 04:50:11;;;;;;;20.65;10.68;;;;;;;16.55;70.92;100645.91;3551475;40;20065;-64
2023/07/02 04:52:38;;;;;;;20.42;10.75;;;;;;;16.54;70.07;100644.22;3551908;40;20114;-63
2023/07/02 04:55:04;;;;;;;20.85;11.23;;;;;;;16.56;69.52;100651.22;3546794;40;20113;-64
2023/07/02 04:57:30;;;;;;;21.63;11.23;;;;;;;16.58;70.20;100646.50;3551555;40;20128;-64
2023/07/02 04:59:56;;;;;;;22.30;11.63;;;;;;;16.64;70.45;100650.50;3552519;40;20109;-64
2023/07/02 05:02:21;;;;;;;18.58;10.43;;;;;;;16.70;69.77;100655.41;3550372;40;20387;-62
2023/07/02 05:04:47;;;;;;;20.50;11.13;;;;;;;16.78;69.07;100661.03;3552283;40;20355;-65
2023/07/02 05:07:13;;;;;;;16.88;10.20;;;;;;;16.85;68.26;100654.03;3553352;40;20412;-65
2023/07/02 05:09:39;;;;;;;20.70;10.65;;;;;;;16.91;67.81;100660.78;3553165;40;20095;-63
2023/07/02 05:12:04;;;;;;;20.60;10.98;;;;;;;16.90;66.29;100659.91;3552294;40;20132;-63
2023/07/02 05:14:30;;;;;;;18.92;9.80;;;;;;;16.98;66.03;100663.78;3550195;40;20789;-63
2023/07/02 05:16:56;;;;;;;18.20;9.75;;;;;;;17.03;66.01;100667.81;3548450;40;20397;-63
2023/07/02 05:19:21;;;;;;;18.48;9.77;;;;;;;17.04;64.77;100674.09;3551439;40;20080;-62
2023/07/02 05:21:47;;;;;;;20.40;9.25;;;;;;;16.84;63.46;100644.19;3547997;40;20149;-62
2023/07/02 05:24:12;;;;;;;17.95;9.25;;;;;;;17.06;63.98;100677.50;3552735;40;20422;-63
2023/07/02 05:26:38;;;;;;;17.40;8.93;;;;;;;17.09;63.26;100693.53;3551636;40;20056;-63
2023/07/02 05:29:05;;;;;;;20.00;8.70;;;;;;;17.08;62.63;100691.81;3547026;40;20054;-63
2023/07/02 05:31:31;;;;;;;20.70;8.82;;;;;;;17.13;62.71;100692.25;3551756;40;20063;-63
2023/07/02 05:33:56;;;;;;;18.60;8.98;;;;;;;17.15;62.30;100696.53;3551736;40;20088;-63
2023/07/02 05:36:22;;;;;;;15.45;8.18;;;;;;;17.06;62.02;100677.50;3553449;40;20057;-63
2023/07/02 05:38:48;;;;;;;17.58;8.40;;;;;;;17.24;61.60;100703.00;3551354;40;20216;-62
2023/07/02 05:41:21;;;;;;;16.67;8.10;;;;;;;17.28;62.07;100698.97;3551542;40;20413;-63
2023/07/02 05:43:47;;;;;;;20.02;8.68;;;;;;;17.32;61.63;100700.44;3552743;40;20061;-63
2023/07/02 05:46:15;;;;;;;16.58;9.95;;;;;;;17.40;61.74;100703.28;3551756;40;20591;-63
2023/07/02 05:48:41;;;;;;;22.25;8.70;;;;;;;17.00;60.74;100631.91;3550185;40;20065;-62
2023/07/02 05:51:10;;;;;;;19.30;8.18;;;;;;;17.52;60.76;100714.88;3551856;40;20210;-64
2023/07/02 05:53:37;;;;;;;16.58;8.13;;;;;;;17.58;59.94;100716.19;3551627;40;20065;-63
2023/07/02 05:56:03;;;;;;;19.00;8.20;;;;;;;17.66;59.06;100719.03;3552768;40;20064;-63
2023/07/02 05:58:29;;;;;;;18.27;7.57;;;;;;;17.72;59.56;100707.56;3551068;40;20049;-63
2023/07/02 06:00:55;;;;;;;17.50;7.80;;;;;;;17.77;59.35;100713.47;3551089;40;20069;-63
2023/07/02 06:03:21;;;;;;;15.40;7.22;;;;;;;17.86;58.52;100714.50;3551007;40;20073;-64
2023/07/02 06:05:49;;;;;;;16.58;7.85;;;;;;;17.91;59.38;100716.75;3550735;40;20088;-63
2023/07/02 06:08:16;;;;;;;16.40;8.50;;;;;;;17.97;58.35;100732.50;3551899;40;20056;-63
2023/07/02 06:10:46;;;;;;;14.60;6.90;;;;;;;18.04;58.11;100725.47;3551813;40;20065;-62
2023/07/02 06:13:11;;;;;;;16.15;7.57;;;;;;;18.08;57.99;100730.50;3551161;40;20057;-63
2023/07/02 06:15:37;;;;;;;14.90;7.55;;;;;;;18.08;56.79;100729.63;3551909;40;20320;-62
2023/07/02 06:18:03;;;;;;;17.65;7.00;;;;;;;18.09;57.88;100726.75;3549578;40;20064;-64
2023/07/02 06:20:28;;;;;;;12.65;6.82;;;;;;;18.11;57.21;100726.63;3552288;40;20231;-63
2023/07/02 06:22:54;;;;;;;14.80;6.95;;;;;;;18.14;56.81;100730.88;3550847;40;20069;-63
2023/07/02 06:25:20;;;;;;;15.38;7.25;;;;;;;18.18;57.21;100735.91;3552643;40;20116;-65
2023/07/02 06:27:45;;;;;;;12.65;6.75;;;;;;;18.18;57.21;100730.47;3550547;40;20108;-63
2023/07/02 06:30:11;;;;;;;16.63;6.88;;;;;;;18.27;57.38;100735.03;3551512;40;20145;-63
2023/07/02 06:32:37;;;;;;;15.57;6.60;;;;;;;18.39;56.91;100741.13;3548694;40;21203;-63
2023/07/02 06:35:05;;;;;;;15.63;7.40;;;;;;;18.49;57.31;100746.53;3549927;40;20056;-63
2023/07/02 06:37:32;;;;;;;14.15;6.35;;;;;;;18.55;56.70;100737.78;3548582;40;20053;-63
2023/07/02 06:39:58;;;;;;;15.30;6.68;;;;;;;18.57;56.13;100741.22;3550682;40;20377;-63
2023/07/02 06:42:25;;;;;;;14.43;6.28;;;;;;;18.60;56.49;100735.50;3552800;40;20068;-63
2023/07/02 06:44:50;;;;;;;14.05;6.45;;;;;;;18.66;55.63;100750.38;3552508;40;20422;-63
2023/07/02 06:47:17;;;;;;;12.65;6.15;;;;;;;18.69;56.49;100750.94;3554975;40;20291;-63
2023/07/02 06:49:43;;;;;;;13.73;6.75;;;;;;;18.71;56.12;100754.38;3552634;40;20100;-63
2023/07/02 06:52:09;;;;;;;12.50;6.18;;;;;;;18.76;56.26;100757.53;3551337;40;20469;-63
2023/07/02 06:54:34;;;;;;;17.02;6.65;;;;;;;18.83;55.62;100754.19;3550089;40;20062;-63
2023/07/02 06:57:00;;;;;;;13.18;6.65;;;;;;;18.87;55.82;100761.06;3550759;40;20065;-63
2023/07/02 06:59:26;;;;;;;14.10;6.90;;;;;;;18.92;54.63;100764.19;3551021;40;20053;-63
2023/07/02 07:01:52;;;;;;;13.60;6.30;;;;;;;18.90;56.31;100742.56;3550837;40;20105;-63
2023/07/02 07:04:18;;;;;;;14.23;6.43;;;;;;;19.08;55.44;100766.28;3552038;40;20222;-63
2023/07/02 07:06:44;;;;;;;11.85;5.55;;;;;;;19.13;55.04;100770.25;3552301;40;20053;-63
2023/07/02 07:09:09;;;;;;;10.88;5.80;;;;;;;19.23;53.84;100762.88;3553904;40;20048;-62
2023/07/02 07:11:35;;;;;;;13.45;5.85;;;;;;;19.21;53.79;100772.22;3549169;40;20086;-62
2023/07/02 07:14:01;;;;;;;16.88;6.50;;;;;;;19.24;53.76;100783.66;3549684;40;20415;-62
2023/07/02 07:16:27;;;;;;;13.77;5.90;;;;;;;19.23;53.76;100771.06;3552520;40;20053;-62
2023/07/02 07:18:53;;;;;;;13.75;6.45;;;;;;;19.32;53.50;100784.81;3552400;40;20306;-63
2023/07/02 07:21:18;;;;;;;12.85;5.75;;;;;;;19.28;53.93;100764.28;3551966;40;20049;-63
2023/07/02 07:23:44;;;;;;;13.18;6.07;;;;;;;19.46;52.53;100795.16;3552743;40;20083;-63
2023/07/02 07:26:10;;;;;;;9.07;5.03;;;;;;;19.38;52.18;100778.75;3549906;40;20088;-62
2023/07/02 07:28:36;;;;;;;11.85;5.45;;;;;;;19.53;51.57;100790.81;3548048;40;20089;-62
2023/07/02 07:31:02;;;;;;;10.50;5.03;;;;;;;19.64;52.39;100801.53;3553324;40;20057;-62
2023/07/02 07:33:28;;;;;;;10.95;5.40;;;;;;;19.68;51.36;100796.63;3550375;40;20146;-63
2023/07/02 07:35:54;;;;;;;11.75;5.38;;;;;;;19.27;51.57;100730.72;3548977;40;20147;-63
2023/07/02 07:38:19;;;;;;;15.70;5.68;;;;;;;19.75;52.41;100813.22;3549508;40;20081;-63
2023/07/02 07:40:45;;;;;;;12.40;5.45;;;;;;;19.79;51.97;100809.19;3550651;40;20603;-63
2023/07/02 07:43:11;;;;;;;9.48;5.40;;;;;;;19.81;51.95;100807.16;3550067;40;20694;-63
2023/07/02 07:45:37;;;;;;;13.23;5.65;;;;;;;19.95;51.10;100814.81;3549150;40;20315;-63
2023/07/02 07:48:05;;;;;;;12.30;5.72;;;;;;;20.02;50.76;100815.91;3552997;40;20381;-64
2023/07/02 07:50:30;;;;;;;12.30;5.60;;;;;;;20.06;50.33;100821.91;3551176;40;20640;-64
2023/07/02 07:52:56;;;;;;;11.18;5.15;;;;;;;20.07;50.12;100823.59;3540702;40;20079;-63
2023/07/02 07:55:22;;;;;;;14.20;5.38;;;;;;;20.12;50.97;100826.72;3551585;40;20073;-63
2023/07/02 07:57:47;;;;;;;10.20;4.78;;;;;;;20.16;49.98;100820.78;3550896;40;20384;-63
2023/07/02 08:00:14;;;;;;;11.27;5.00;;;;;;;;;;3551665;40;20362;-63
2023/07/02 08:02:39;;;;;;;10.93;5.47;;;;;;;20.12;48.54;100827.59;3550794;40;20728;-63
2023/07/02 08:05:06;;;;;;;10.93;4.90;;;;;;;20.13;47.24;100812.06;3551030;40;20057;-64
2023/07/02 08:07:32;;;;;;;10.60;5.03;;;;;;;20.25;47.67;100820.88;3551522;40;20138;-63
2023/07/02 08:09:58;;;;;;;9.93;4.93;;;;;;;20.36;47.15;100812.41;3549926;40;20470;-64
2023/07/02 08:12:23;;;;;;;12.45;5.18;;;;;;;20.49;46.82;100826.53;3549240;40;20588;-64
2023/07/02 08:14:49;;;;;;;10.07;4.93;;;;;;;20.59;46.61;100813.66;3549003;40;20076;-63
2023/07/02 08:17:15;;;;;;;11.35;5.10;;;;;;;20.57;46.60;100817.56;3550675;40;20068;-64
2023/07/02 08:19:41;;;;;;;8.85;4.55;;;;;;;20.60;45.88;100826.28;3549758;40;20069;-64
2023/07/02 08:22:07;;;;;;;6.93;4.72;;;;;;;20.54;45.72;100832.38;3548785;40;20371;-63
2023/07/02 08:24:33;;;;;;;9.10;5.05;;;;;;;20.55;46.49;100838.69;3550729;40;20109;-64
2023/07/02 08:26:59;;;;;;;9.95;4.90;;;;;;;20.51;45.39;100832.69;3550997;40;20179;-63
2023/07/02 08:29:25;;;;;;;10.85;4.60;;;;;;;20.46;45.30;100836.91;3552239;40;20140;-64
2023/07/02 08:31:50;;;;;;;9.25;4.97;;;;;;;20.45;46.41;100841.50;3553887;40;20061;-64
2023/07/02 08:34:16;;;;;;;11.90;4.93;;;;;;;20.45;45.18;100844.22;3552139;40;20525;-63
2023/07/02 08:36:43;;;;;;;11.00;4.97;;;;;;;20.45;45.98;100848.84;3554379;40;20372;-63
2023/07/02 08:39:09;;;;;;;8.35;5.18;;;;;;;20.55;46.09;100850.50;3551347;40;20057;-63
2023/07/02 08:41:47;;;;;;;8.77;4.70;;;;;;;20.68;45.93;100861.00;3549887;40;20317;-64
2023/07/02 08:44:14;;;;;;;9.68;5.03;;;;;;;20.76;45.53;100852.00;3550607;40;20069;-63
2023/07/02 08:46:42;;;;;;;11.85;4.80;;;;;;;20.78;44.88;100855.44;3552595;40;20100;-63
2023/07/02 08:49:08;;;;;;;10.60;5.20;;;;;;;20.55;44.51;100820.47;3552518;40;20061;-63
2023/07/02 08:51:35;;;;;;;9.70;5.00;;;;;;;20.72;45.22;100856.09;3551543;40;20057;-63
2023/07/02 08:54:02;;;;;;;9.73;5.13;;;;;;;20.75;46.02;100858.50;3551725;40;20065;-63
2023/07/02 08:56:29;;;;;;;11.18;5.38;;;;;;;20.73;44.37;100847.72;3549820;40;20057;-63
2023/07/02 08:58:55;;;;;;;9.65;5.05;;;;;;;20.78;44.97;100858.19;3550665;40;20053;-64
2023/07/02 09:01:21;;;;;;;8.65;4.97;;;;;;;20.89;45.10;100852.44;3552170;40;20100;-63
2023/07/02 09:03:46;;;;;;;9.35;4.95;;;;;;;20.94;43.52;100860.16;3552172;40;20069;-63
2023/07/02 09:06:13;;;;;;;11.00;5.10;;;;;;;20.98;44.51;100856.94;3551943;40;20446;-63
2023/07/02 09:08:39;;;;;;;9.35;4.82;;;;;;;21.09;45.67;100851.19;3550477;40;20398;-63
2023/07/02 09:11:19;;;;;;;10.00;5.13;;;;;;;21.21;43.64;100850.91;3552607;40;20060;-63
2023/07/02 09:13:58;;;;;;;10.25;5.20;;;;;;;21.39;43.38;100850.84;3551657;40;20067;-63
2023/07/02 09:16:34;;;;;;;12.57;5.00;;;;;;;21.41;42.84;100852.41;3549900;40;21267;-63
2023/07/02 09:19:08;;;;;;;7.35;4.28;;;;;;;21.50;41.74;100848.69;3552267;40;20110;-64
2023/07/02 09:21:49;;;;;;;10.88;4.75;;;;;;;21.64;41.10;100851.78;3552003;40;21017;-63
2023/07/02 09:24:23;;;;;;;9.52;4.80;;;;;;;21.77;40.46;100857.63;3551760;40;20123;-63
2023/07/02 09:26:49;;;;;;;8.10;4.45;;;;;;;21.80;40.57;100857.31;3552371;40;20475;-63
2023/07/02 09:29:39;;;;;;;8.52;4.57;;;;;;;21.80;41.52;100865.53;3550149;40;20049;-63
2023/07/02 09:32:08;;;;;;;9.65;4.53;;;;;;;21.97;41.40;100858.19;3551727;40;20436;-63
2023/07/02 09:34:37;;;;;;;7.70;4.50;;;;;;;21.97;40.89;100856.31;3553442;40;20057;-63
2023/07/02 09:37:05;;;;;;;10.35;5.13;;;;;;;21.88;40.53;100849.09;3548900;40;20442;-61
2023/07/02 09:39:36;;;;;;;9.52;5.60;;;;;;;21.85;40.99;100854.94;3549304;40;20694;-63
2023/07/02 09:42:09;;;;;;;9.65;5.05;;;;;;;21.71;40.87;100842.75;3551676;40;20135;-62
2023/07/02 09:44:35;;;;;;;;;;;;;;;21.59;42.04;100849.53;3544100;40;20460;-63
2023/07/02 09:47:03;;;;;;;12.73;5.43;;;;;;;21.59;41.73;100854.16;3552915;40;19933;-63
2023/07/02 09:49:37;;;;;;;12.65;5.45;;;;;;;21.62;42.92;100849.22;3550146;40;20455;-63
2023/07/02 09:52:06;;;;;;;10.15;5.60;;;;;;;21.87;43.25;100858.34;3550548;40;20122;-64
2023/07/02 09:54:33;;;;;;;10.05;4.90;;;;;;;22.09;43.17;100861.47;3550474;40;20068;-64
2023/07/02 09:57:00;;;;;;;13.27;5.28;;;;;;;22.16;42.30;100854.31;3550794;40;20060;-63
2023/07/02 09:59:27;;;;;;;8.80;5.03;;;;;;;22.15;42.50;100858.06;3551781;40;20072;-63
2023/07/02 10:01:53;;;;;;;10.77;4.88;;;;;;;22.22;42.14;100856.38;3550137;40;20383;-63
2023/07/02 10:04:23;;;;;;;10.23;5.03;;;;;;;22.06;42.35;100861.81;3550424;40;20061;-63
2023/07/02 10:06:54;;;;;;;10.23;5.03;;;;;;;22.06;43.38;100875.50;3552216;40;20275;-63
2023/07/02 10:09:35;;;;;;;10.95;5.18;;;;;;;22.23;43.19;100863.56;3551916;40;20072;-63
2023/07/02 10:12:01;;;;;;;9.52;4.75;;;;;;;22.39;43.27;100880.03;3551816;40;20059;-62
2023/07/02 10:14:26;;;;;;;8.23;5.30;;;;;;;22.34;42.27;100876.94;3552041;40;20065;-63
2023/07/02 10:16:55;;;;;;;11.45;5.32;;;;;;;22.21;43.11;100873.84;3550684;40;20087;-64
2023/07/02 10:19:21;;;;;;;12.35;4.97;;;;;;;22.14;43.06;100875.53;3551420;40;20079;-63
2023/07/02 10:22:04;;;;;;;12.40;5.43;;;;;;;22.01;43.85;100887.81;3550291;40;20097;-64
2023/07/02 10:24:30;;;;;;;10.23;5.13;;;;;;;21.87;43.06;100862.97;3552056;40;20075;-63
2023/07/02 10:27:02;;;;;;;10.27;5.13;;;;;;;21.86;42.90;100873.06;3553143;40;20326;-63
2023/07/02 10:29:29;;;;;;;10.43;5.17;;;;;;;21.37;42.96;100784.50;3550938;40;20052;-63
2023/07/02 10:31:57;;;;;;;9.98;5.45;;;;;;;22.06;42.56;100875.50;3551312;40;20322;-64
2023/07/02 10:34:32;;;;;;;10.55;5.43;;;;;;;22.25;41.96;100888.91;3550807;40;20111;-65
2023/07/02 10:36:59;;;;;;;10.43;4.95;;;;;;;22.45;42.33;100872.97;3549303;40;20235;-64
2023/07/02 10:39:26;;;;;;;12.23;5.40;;;;;;;22.48;41.52;100876.22;3550041;40;20075;-64
2023/07/02 10:41:51;;;;;;;10.68;5.05;;;;;;;22.68;41.40;100884.13;3552334;40;21051;-65
2023/07/02 10:44:17;;;;;;;13.90;5.47;;;;;;;22.80;39.99;100896.44;3553176;40;20049;-64
2023/07/02 10:46:47;;;;;;;16.10;5.00;;;;;;;22.62;40.49;100884.81;3550762;40;20059;-64
2023/07/02 10:49:18;;;;;;;12.35;5.45;;;;;;;22.56;41.82;100891.84;3550991;40;20081;-64
2023/07/02 10:51:44;;;;;;;11.38;5.65;;;;;;;22.65;41.45;100889.94;3550490;40;20449;-64
2023/07/02 10:54:10;;;;;;;14.10;6.43;;;;;;;22.63;40.82;100887.38;3551315;40;20057;-64
2023/07/02 10:56:35;;;;;;;12.40;5.65;;;;;;;22.16;41.19;100824.19;3549415;40;21434;-64
2023/07/02 10:59:01;;;;;;;10.13;5.57;;;;;;;22.38;41.91;100883.78;3549678;40;20053;-64
2023/07/02 11:01:30;;;;;;;11.93;6.05;;;;;;;22.37;41.73;100890.28;3552153;40;20095;-64
2023/07/02 11:04:05;;;;;;;15.13;6.50;;;;;;;22.58;42.25;100883.41;3551058;40;20061;-64
2023/07/02 11:06:33;;;;;;;14.95;6.32;;;;;;;22.88;41.51;100882.72;3551684;40;20057;-65
2023/07/02 11:08:59;;;;;;;13.73;6.60;;;;;;;22.78;41.81;100865.59;3539995;40;20550;-64
2023/07/02 11:11:27;;;;;;;13.98;6.43;;;;;;;22.33;41.64;100806.75;3551759;40;20066;-64
2023/07/02 11:13:54;;;;;;;15.13;6.28;;;;;;;22.77;42.43;100896.81;3547900;40;20065;-64
2023/07/02 11:16:29;;;;;;;10.98;6.55;;;;;;;22.01;41.31;100816.63;3552328;40;20097;-64
2023/07/02 11:19:10;;;;;;;12.73;6.22;;;;;;;22.13;41.95;100898.44;3552068;40;20061;-64